CDT,Max TemperatureF,Mean TemperatureF,Min TemperatureF,Max Dew PointF,MeanDew PointF,Min DewpointF,Max Humidity, Mean Humidity, Min Humidity, Max Sea Level PressureIn, Mean Sea Level PressureIn, Min Sea Level PressureIn, Max VisibilityMiles, Mean VisibilityMiles, Min VisibilityMiles, Max Wind SpeedMPH, Mean Wind SpeedMPH, Max Gust SpeedMPH,PrecipitationIn, CloudCover, Events, WindDirDegrees
2012-10-1,75,62,52,57,51,45,97,75,41,30.05,29.97,29.89,10,10,10,25,8,34,0.00,2,Rain,338
2012-10-2,73,58,42,47,42,36,100,62,26,30.09,29.99,29.89,10,10,10,12,4,,0.00,0,,246
2012-10-3,82,66,50,52,46,39,74,50,31,29.89,29.85,29.78,10,10,10,25,12,32,0.00,0,,183
2012-10-4,64,58,51,53,41,36,84,54,39,30.25,30.14,29.86,10,10,10,23,15,32,0.00,5,,44
2012-10-5,61,53,46,39,35,26,74,52,37,30.29,30.20,30.14,10,10,10,18,10,25,0.00,6,,54
2012-10-6,46,42,39,34,32,29,79,64,54,30.39,30.32,30.26,10,10,10,15,10,21,0.00,8,,45
2012-10-7,52,40,27,33,28,25,96,68,37,30.39,30.30,30.21,10,10,10,13,3,,0.00,1,,188
2012-10-8,69,49,32,36,32,28,85,55,28,30.20,30.05,29.91,10,10,10,24,12,30,0.00,0,,198
2012-10-9,75,60,46,44,40,32,86,55,24,30.14,29.90,29.80,10,10,10,22,16,30,0.00,0,,333
2012-10-10,68,50,35,40,34,25,97,56,23,30.28,30.18,30.08,10,10,10,16,6,22,0.00,3,,136
2012-10-11,84,68,51,63,53,41,86,63,40,30.09,30.01,29.90,10,10,10,26,15,38,0.00,2,,196
2012-10-12,70,60,51,65,52,39,100,79,57,30.22,30.08,29.91,10,9,4,22,6,30,0.00,7,Rain-Thunderstorm,64
2012-10-13,84,72,59,66,55,31,96,66,17,29.94,29.80,29.63,10,10,5,30,21,38,0.04,2,Rain-Thunderstorm,220
2012-10-14,78,64,48,46,41,36,74,48,23,30.13,30.03,29.78,10,10,10,20,12,26,0.00,0,,320
2012-10-15,88,66,45,42,39,34,90,45,15,30.11,29.96,29.79,10,10,7,22,10,36,0.00,0,,219
2012-10-16,82,68,53,46,43,37,69,45,25,29.76,29.62,29.46,10,10,10,22,13,18,0.00,0,,190
2012-10-17,71,56,39,44,31,19,71,38,15,29.90,29.66,29.34,10,10,2,38,12,48,0.00,0,,339
2012-10-18,66,51,36,27,22,16,70,38,16,30.07,30.00,29.90,10,10,10,22,10,33,0.00,1,,285
2012-10-19,75,58,42,33,22,15,43,28,13,30.06,29.94,29.78,10,10,10,18,10,25,0.00,0,,279
2012-10-20,86,65,46,46,40,32,67,43,24,29.77,29.71,29.63,10,10,10,14,8,,0.00,0,,172
2012-10-21,93,70,46,46,37,30,90,40,11,29.71,29.64,29.57,10,10,10,24,8,30,0.00,0,,199
2012-10-22,84,68,53,64,46,34,90,47,27,29.86,29.75,29.64,10,10,8,22,13,31,0.00,0,,201
2012-10-23,95,79,63,64,52,26,100,57,9,29.79,29.70,29.62,10,9,6,24,20,32,0.00,0,,196
2012-10-24,87,75,64,64,63,61,93,71,44,29.80,29.67,29.56,10,10,8,28,21,38,0.00,0,,184
2012-10-25,71,54,36,63,39,28,88,68,43,30.30,29.98,29.54,10,10,10,31,22,39,0.00,5,,354
2012-10-26,50,38,26,28,25,19,93,66,35,30.52,30.43,30.31,10,10,10,20,9,29,0.00,3,,18
2012-10-27,52,34,17,24,19,14,88,58,29,30.44,30.32,30.20,10,10,3,12,4,,0.00,0,,167
2012-10-28,64,44,25,25,22,19,78,46,19,30.30,30.22,30.14,10,10,10,16,5,23,0.00,0,,182
2012-10-29,72,54,36,32,29,25,67,41,21,30.21,30.13,30.04,10,10,9,22,14,29,0.00,0,,196
2012-10-30,84,60,39,38,33,30,73,46,16,30.07,29.98,29.88,10,10,10,17,7,28,0.00,0,,287
2012-10-31,81,59,37,38,35,32,86,49,18,30.10,30.02,29.94,10,10,2,12,4,,0.00,0,,267